createdAt,value
2019-04-04T00:01:28.198Z,1999.90
2019-04-04T00:06:32.170Z,1999.90
2019-04-04T00:11:36.872Z,1999.90
2019-04-04T00:16:41.356Z,1999.90
2019-04-04T00:21:45.072Z,1999.90
2019-04-04T00:26:49.035Z,1999.90
2019-04-04T00:31:52.738Z,1999.90
2019-04-04T00:36:56.698Z,1999.90
2019-04-04T00:42:00.386Z,1999.90
2019-04-04T00:47:04.106Z,1999.90
2019-04-04T00:52:09.922Z,1999.90
2019-04-04T00:57:13.231Z,1999.90
2019-04-04T01:02:16.943Z,1999.90
2019-04-04T01:07:20.670Z,1999.90
2019-04-04T01:12:24.394Z,1999.90
2019-04-04T01:17:28.371Z,1999.90
2019-04-04T01:22:32.355Z,1999.90
2019-04-04T01:27:36.928Z,1999.90
2019-04-04T01:32:42.339Z,1999.90
2019-04-04T01:37:46.081Z,1999.90
2019-04-04T01:42:49.813Z,1999.90
2019-04-04T01:47:53.525Z,1999.90
2019-04-04T01:52:59.284Z,1999.90
2019-04-04T01:58:03.011Z,1999.90
2019-04-04T02:03:06.745Z,1999.90
2019-04-04T02:08:10.890Z,1999.90
2019-04-04T02:13:14.622Z,1999.90
2019-04-04T02:18:18.373Z,1999.90
2019-04-04T02:23:22.363Z,1999.90
2019-04-04T02:28:26.100Z,1999.90
2019-04-04T02:33:32.438Z,1794.50
2019-04-04T02:38:35.307Z,1999.90
2019-04-04T02:43:39.020Z,1999.90
2019-04-04T02:48:42.768Z,1913.50
2019-04-04T02:53:46.760Z,1891.50
2019-04-04T02:58:51.100Z,1999.90
2019-04-04T03:03:54.964Z,1999.90
2019-04-04T03:08:58.757Z,1999.90
2019-04-04T03:14:03.726Z,1999.90
2019-04-04T03:19:10.992Z,1999.90
2019-04-04T03:24:13.472Z,1999.90
2019-04-04T03:29:17.407Z,1904.00
2019-04-04T03:34:21.134Z,1920.97
2019-04-04T03:39:24.931Z,1829.17
2019-04-04T03:44:28.721Z,1713.63
2019-04-04T03:49:32.448Z,1819.20
2019-04-04T03:54:36.427Z,1991.60
2019-04-04T03:59:40.204Z,1583.13
2019-04-04T04:04:43.922Z,1808.67
2019-04-04T04:09:47.627Z,1625.73
2019-04-04T04:14:54.881Z,1768.20
2019-04-04T04:19:56.890Z,1767.73
2019-04-04T04:25:03.496Z,1769.67
2019-04-04T04:30:07.596Z,1734.00
2019-04-04T04:35:12.351Z,1934.30
2019-04-04T04:40:16.071Z,1697.67
2019-04-04T04:45:20.098Z,1872.07
2019-04-04T04:50:23.916Z,1999.90
2019-04-04T04:55:28.205Z,1812.87
2019-04-04T05:00:32.438Z,1944.10
2019-04-04T05:05:36.209Z,1999.90
2019-04-04T05:10:39.959Z,1983.73
2019-04-04T05:15:43.982Z,1999.90
2019-04-04T05:20:48.044Z,1999.90
2019-04-04T05:25:54.471Z,1983.83
2019-04-04T05:30:58.662Z,1999.90
2019-04-04T05:36:04.805Z,1999.90
2019-04-04T05:41:11.325Z,1999.90
2019-04-04T05:46:16.791Z,1999.90
2019-04-04T05:51:20.752Z,1999.90
2019-04-04T05:56:24.693Z,1999.90
2019-04-04T06:01:28.585Z,1999.90
2019-04-04T06:06:33.370Z,1999.90
2019-04-04T06:11:38.260Z,1999.90
2019-04-04T06:16:42.234Z,1999.90
2019-04-04T06:21:46.042Z,1999.90
2019-04-04T06:26:50.078Z,1999.90
2019-04-04T06:32:00.092Z,1999.90
2019-04-04T06:37:04.199Z,1977.50
2019-04-04T06:42:11.392Z,1732.83
2019-04-04T06:47:19.606Z,1999.90
2019-04-04T06:52:37.481Z,1572.70
2019-04-04T06:57:42.615Z,1185.23
2019-04-04T07:02:56.063Z,1028.07
2019-04-04T07:08:00.055Z,1999.90
2019-04-04T07:13:20.455Z,941.10
2019-04-04T07:18:12.985Z,1079.23
2019-04-04T07:23:20.689Z,1708.00
2019-04-04T07:28:25.719Z,1356.17
2019-04-04T07:33:30.330Z,1351.70
2019-04-04T07:38:38.610Z,929.37
2019-04-04T07:43:43.778Z,496.10
2019-04-04T07:48:52.163Z,836.83
2019-04-04T07:53:58.619Z,529.30
2019-04-04T07:59:04.451Z,159.03
2019-04-04T08:04:10.381Z,189.40
2019-04-04T08:09:32.903Z,286.20
2019-04-04T08:14:43.844Z,219.07
2019-04-04T08:19:59.561Z,254.50
2019-04-04T08:24:57.794Z,1999.90
2019-04-04T08:30:02.812Z,727.70
2019-04-04T08:35:09.034Z,387.33
2019-04-04T08:40:16.164Z,1999.90
2019-04-04T08:45:28.761Z,152.60
2019-04-04T08:50:44.140Z,525.63
2019-04-04T08:55:59.919Z,274.43
2019-04-04T09:01:05.172Z,182.17
2019-04-04T09:06:13.390Z,208.00
2019-04-04T09:11:19.002Z,199.93
2019-04-04T09:16:23.815Z,211.23
2019-04-04T09:21:27.951Z,270.80
2019-04-04T09:26:31.728Z,182.93
2019-04-04T09:31:35.479Z,137.60
2019-04-04T09:36:39.658Z,126.10
2019-04-04T09:41:44.168Z,132.23
2019-04-04T09:46:48.776Z,175.07
2019-04-04T09:51:53.205Z,163.77
2019-04-04T09:57:00.579Z,132.90
2019-04-04T10:02:06.248Z,148.67
2019-04-04T10:07:11.465Z,276.40
2019-04-04T10:12:18.281Z,175.10
2019-04-04T10:17:35.123Z,215.27
2019-04-04T10:22:42.678Z,167.83
2019-04-04T10:27:50.821Z,170.43
2019-04-04T10:32:55.549Z,168.20
2019-04-04T10:38:02.783Z,428.80
2019-04-04T10:43:09.551Z,124.50
2019-04-04T10:48:14.669Z,145.37
2019-04-04T10:53:20.932Z,132.90
2019-04-04T10:58:24.662Z,132.00
2019-04-04T11:03:29.301Z,322.43
2019-04-04T11:08:33.863Z,1999.90
2019-04-04T11:13:38.628Z,159.00
2019-04-04T11:18:43.065Z,134.93
2019-04-04T11:23:48.051Z,156.27
2019-04-04T11:28:52.486Z,272.87
2019-04-04T11:33:57.328Z,157.23
2019-04-04T11:39:01.489Z,141.77
2019-04-04T11:44:06.409Z,130.40
2019-04-04T11:49:11.857Z,190.10
2019-04-04T11:54:17.117Z,135.17
2019-04-04T11:59:21.942Z,129.53
2019-04-04T12:04:26.915Z,136.33
2019-04-04T12:09:36.209Z,128.80
2019-04-04T12:14:52.790Z,128.73
2019-04-04T12:20:00.742Z,132.03
2019-04-04T12:25:06.052Z,145.27
2019-04-04T12:30:11.227Z,140.73
2019-04-04T12:35:15.921Z,368.33
2019-04-04T12:40:21.192Z,166.20
2019-04-04T12:45:26.523Z,456.27
2019-04-04T12:50:31.123Z,139.73
2019-04-04T12:55:35.919Z,302.10
2019-04-04T13:00:40.244Z,945.63
2019-04-04T13:05:44.273Z,217.30
2019-04-04T13:10:49.208Z,351.90
2019-04-04T13:15:54.577Z,147.30
2019-04-04T13:20:59.652Z,148.77
2019-04-04T13:26:04.453Z,161.13
2019-04-04T13:31:09.531Z,149.93
2019-04-04T13:36:13.874Z,139.87
2019-04-04T13:41:22.054Z,145.57
2019-04-04T13:46:28.043Z,145.77
2019-04-04T13:51:31.142Z,131.90
2019-04-04T13:56:35.558Z,142.90
2019-04-04T14:01:42.717Z,186.97
2019-04-04T14:06:47.262Z,139.57
2019-04-04T14:11:51.996Z,125.43
2019-04-04T14:16:57.330Z,162.67
2019-04-04T14:22:02.089Z,162.37
2019-04-04T14:27:09.022Z,204.53
2019-04-04T14:32:14.545Z,138.87
2019-04-04T14:37:18.281Z,135.70
2019-04-04T14:42:22.307Z,159.87
2019-04-04T14:47:26.731Z,126.53
2019-04-04T14:52:30.828Z,130.10
2019-04-04T14:57:35.918Z,116.00
2019-04-04T15:02:40.877Z,149.33
2019-04-04T15:07:45.225Z,130.87
2019-04-04T15:12:50.611Z,135.40
2019-04-04T15:17:55.230Z,111.40
2019-04-04T15:23:01.032Z,168.03
2019-04-04T15:28:05.926Z,133.83
2019-04-04T15:33:11.742Z,148.50
2019-04-04T15:38:17.611Z,125.30
2019-04-04T15:43:22.858Z,160.17
2019-04-04T15:48:28.084Z,242.93
2019-04-04T15:53:33.025Z,130.63
2019-04-04T15:58:38.251Z,122.60
2019-04-04T16:03:43.693Z,126.47
2019-04-04T16:08:48.417Z,143.73
2019-04-04T16:13:53.215Z,190.57
2019-04-04T16:18:58.442Z,129.43
2019-04-04T16:24:03.909Z,113.70
2019-04-04T16:29:08.423Z,135.33
2019-04-04T16:34:13.007Z,112.07
2019-04-04T16:39:17.722Z,122.17
2019-04-04T16:44:22.590Z,122.07
2019-04-04T16:49:28.220Z,147.47
2019-04-04T16:54:32.878Z,139.40
2019-04-04T16:59:38.067Z,252.23
2019-04-04T17:04:43.655Z,244.40
2019-04-04T17:09:49.393Z,304.67
2019-04-04T17:14:54.670Z,886.97
2019-04-04T17:19:58.501Z,959.60
2019-04-04T17:25:03.067Z,996.37
2019-04-04T17:30:09.295Z,1052.63
2019-04-04T17:35:14.793Z,1074.70
2019-04-04T17:40:21.013Z,1056.33
2019-04-04T17:45:26.920Z,987.13
2019-04-04T17:50:32.330Z,1066.50
2019-04-04T17:55:37.342Z,1912.03
2019-04-04T18:00:42.517Z,1999.90
2019-04-04T18:05:47.432Z,1978.27
2019-04-04T18:10:52.601Z,1999.90
2019-04-04T18:15:57.727Z,1999.90
2019-04-04T18:21:01.842Z,1999.90
2019-04-04T18:26:06.246Z,1999.90
2019-04-04T18:31:11.818Z,1999.90
2019-04-04T18:36:16.108Z,1999.90
2019-04-04T18:41:20.575Z,1999.90
2019-04-04T18:46:26.209Z,1999.90
2019-04-04T18:51:31.218Z,1999.90
2019-04-04T18:56:37.267Z,1999.90
2019-04-04T19:01:42.471Z,1999.90
2019-04-04T19:06:48.030Z,1999.90
2019-04-04T19:11:53.355Z,1999.90
2019-04-04T19:16:58.442Z,1999.90
2019-04-04T19:22:03.570Z,1999.90
2019-04-04T19:27:07.633Z,1999.90
2019-04-04T19:32:12.035Z,1999.90
2019-04-04T19:37:16.853Z,1999.90
2019-04-04T19:42:22.188Z,1999.90
2019-04-04T19:47:26.850Z,1999.90
2019-04-04T19:52:31.619Z,1999.90
2019-04-04T19:57:36.086Z,1999.90
2019-04-04T20:02:43.778Z,1999.90
2019-04-04T20:07:47.431Z,1999.90
2019-04-04T20:12:51.546Z,1999.90
2019-04-04T20:17:56.986Z,1999.90
2019-04-04T20:23:02.126Z,1999.90
2019-04-04T20:28:06.117Z,1999.90
2019-04-04T20:33:13.554Z,1999.90
2019-04-04T20:38:17.736Z,1999.90
2019-04-04T20:43:21.752Z,1999.90
2019-04-04T20:48:27.951Z,1999.90
2019-04-04T20:53:32.951Z,1999.90
2019-04-04T20:58:38.199Z,1999.90
2019-04-04T21:03:42.574Z,1999.90
2019-04-04T21:08:47.517Z,1999.90
2019-04-04T21:13:56.451Z,1999.90
2019-04-04T21:18:57.794Z,1999.90
2019-04-04T21:24:02.569Z,1999.90
2019-04-04T21:29:08.254Z,1999.90
2019-04-04T21:34:12.575Z,1999.90
2019-04-04T21:39:16.686Z,1999.90
2019-04-04T21:44:22.417Z,1999.90
2019-04-04T21:49:28.008Z,1999.90
2019-04-04T21:54:33.979Z,1999.90
2019-04-04T21:59:39.330Z,1999.90
2019-04-04T22:04:43.143Z,1999.90
2019-04-04T22:09:47.674Z,1999.90
2019-04-04T22:14:52.158Z,1999.90
2019-04-04T22:19:57.479Z,1999.90
2019-04-04T22:25:02.431Z,1999.90
2019-04-04T22:30:09.021Z,1999.90
2019-04-04T22:35:14.597Z,1999.90
2019-04-04T22:40:19.288Z,1999.90
2019-04-04T22:45:24.643Z,1999.90
2019-04-04T22:50:29.936Z,1999.90
2019-04-04T22:55:35.591Z,1999.90
2019-04-04T23:00:39.458Z,1999.90
2019-04-04T23:05:44.244Z,1999.90
2019-04-04T23:10:49.167Z,1999.90
2019-04-04T23:15:53.229Z,1999.90
2019-04-04T23:20:58.584Z,1999.90
2019-04-04T23:26:03.693Z,1999.90
2019-04-04T23:31:08.797Z,1999.90
2019-04-04T23:36:12.631Z,1999.90
2019-04-04T23:41:19.710Z,1999.90
2019-04-04T23:46:25.242Z,1999.90
2019-04-04T23:51:30.859Z,1999.90
2019-04-04T23:56:36.056Z,1999.90
